Home > Products > Valid Products > TAF

000
FTUS43 KUNR 011120
TAFRAP
TAF
KRAP 011120Z 0112/0212 VRB05KT P6SM SCT250
     FM011500 12009KT P6SM SKC=



000
FTUS43 KUNR 011120
TAFGCC
TAF
KGCC 011120Z 0112/0212 VRB05KT P6SM SKC
     FM011500 24007KT P6SM SKC=



000
FTUS43 KUNR 010520
TAFRAP
TAF
KRAP 010520Z 0106/0206 VRB05KT P6SM SCT250
     FM011500 14010KT P6SM SKC=



000
FTUS43 KUNR 010520
TAFGCC
TAF
KGCC 010520Z 0106/0206 22008KT P6SM SKC=



000
FTUS43 KUNR 010520
TAFRAP
TAF
KRAP 010520Z 0106/0206 VRB05KT P6SM SCT250
     FM011500 14010KT P6SM SKC=



000
FTUS43 KUNR 010520
TAFGCC
TAF
KGCC 010520Z 0106/0206 22008KT P6SM SKC=



000
FTUS43 KUNR 312320
TAFRAP
TAF
KRAP 312320Z 0100/0124 13008KT P6SM SCT250
     FM011500 17012KT P6SM SKC=



000
FTUS43 KUNR 312320
TAFGCC
TAF
KGCC 312320Z 0100/0124 18009KT P6SM SCT250
     FM011500 27010KT P6SM SKC=



000
FTUS43 KUNR 311720
TAFGCC
TAF
KGCC 311720Z 3118/0118 18009KT P6SM SKC
     FM011500 27008KT P6SM SKC=



000
FTUS43 KUNR 311720
TAFRAP
TAF
KRAP 311720Z 3118/0118 36014KT P6SM BKN150
     FM311900 04009KT P6SM SCT250
     FM312300 16006KT P6SM SKC=



000
FTUS43 KUNR 311720
TAFRAP
TAF
KRAP 311720Z 3118/0118 36014KT P6SM BKN150
     FM311900 04009KT P6SM SCT250
     FM312300 16006KT P6SM SKC=



000
FTUS43 KUNR 311720
TAFGCC
TAF
KGCC 311720Z 3118/0118 18009KT P6SM SKC
     FM011500 27008KT P6SM SKC=



000
FTUS43 KUNR 311243 AAA
TAFRAP
TAF AMD
KRAP 311243Z 3113/0112 34015G25KT P6SM BKN150
     FM311700 36014KT P6SM SCT250
     FM312000 04009KT P6SM SCT250
     FM010000 16006KT P6SM SKC=



000
FTUS43 KUNR 311243 AAA
TAFRAP
TAF AMD
KRAP 311243Z 3113/0112 34015G25KT P6SM BKN150
     FM311700 36014KT P6SM SCT250
     FM312000 04009KT P6SM SCT250
     FM010000 16006KT P6SM SKC=



000
FTUS43 KUNR 311120
TAFGCC
TAF
KGCC 311120Z 3112/0112 32011KT P6SM SCT250
     FM311600 28005KT P6SM SKC
     FM311900 19009KT P6SM SKC
     FM010000 17011KT P6SM SCT250=



000
FTUS43 KUNR 311120
TAFRAP
TAF
KRAP 311120Z 3112/0112 34022G35KT P6SM BKN150
     FM311700 36014KT P6SM SCT250
     FM312000 04009KT P6SM SCT250
     FM010000 16006KT P6SM SKC=



000
FTUS43 KUNR 311120
TAFRAP
TAF
KRAP 311120Z 3112/0112 34022G35KT P6SM BKN150
     FM311700 36014KT P6SM SCT250
     FM312000 04009KT P6SM SCT250
     FM010000 16006KT P6SM SKC=



000
FTUS43 KUNR 311120
TAFGCC
TAF
KGCC 311120Z 3112/0112 32011KT P6SM SCT250
     FM311600 28005KT P6SM SKC
     FM311900 19009KT P6SM SKC
     FM010000 17011KT P6SM SCT250=



000
FTUS43 KUNR 310530
TAFRAP
TAF
KRAP 310530Z 3106/0106 31009KT P6SM BKN150
     FM311100 32022G32KT P6SM BKN150
     FM311800 36014KT P6SM SCT250=



000
FTUS43 KUNR 310530
TAFGCC
TAF
KGCC 310530Z 3106/0106 22006KT P6SM BKN150
     FM310900 32015G25KT P6SM BKN150
     FM311400 34008KT P6SM SCT250=



000
FTUS43 KUNR 310016 AAA
TAFRAP
TAF AMD
KRAP 310016Z 3100/3124 30014KT P6SM VCSH BKN150
      TEMPO 3101/3103 VRB35KT -TSRA BKN100CB
     FM311100 32022G32KT P6SM BKN150=



000
FTUS43 KUNR 302320
TAFGCC
TAF
KGCC 302320Z 3100/3124 34010KT P6SM BKN150
      TEMPO 3100/3102 VRB35KT -TSRA BKN100CB
     FM310200 32010KT P6SM BKN150
     FM310900 32015G25KT P6SM BKN150=



000
FTUS43 KUNR 302320
TAFRAP
TAF
KRAP 302320Z 3100/3124 30014KT P6SM VCSH BKN150
     FM311100 32022G32KT P6SM BKN150=



000
FTUS43 KUNR 302320
TAFRAP
TAF
KRAP 302320Z 3100/3124 30014KT P6SM VCSH BKN150
     FM311100 32022G32KT P6SM BKN150=



000
FTUS43 KUNR 302320
TAFGCC
TAF
KGCC 302320Z 3100/3124 34010KT P6SM BKN150
      TEMPO 3100/3102 VRB35KT -TSRA BKN100CB
     FM310200 32010KT P6SM BKN150
     FM310900 32015G25KT P6SM BKN150=



000
FTUS43 KUNR 302223 AAA
TAFRAP
TAF AMD
KRAP 302223Z 3022/3118 18013KT P6SM FEW150 SCT250
      TEMPO 3022/3101 32024KT
     FM311100 32018G28KT P6SM OVC150=



000
FTUS43 KUNR 302218 AAA
TAFGCC
TAF AMD
KGCC 302218Z 3022/3118 34010KT P6SM BKN150
      TEMPO 3022/3102 VRB35KT -TSRA BKN100CB
     FM310200 32010KT P6SM BKN150
     FM310900 32017G27KT P6SM BKN150=



000
FTUS43 KUNR 302218 AAA
TAFGCC
TAF AMD
KGCC 302218Z 3022/3118 34010KT P6SM BKN150
      TEMPO 3022/3102 VRB35KT -TSRA BKN100CB
     FM310200 32010KT P6SM BKN150
     FM310900 32017G27KT P6SM BKN150=



000
FTUS43 KUNR 301725
TAFRAP
TAF
KRAP 301725Z 3018/3118 18013KT P6SM FEW150 SCT250
     FM311100 32018G28KT P6SM OVC150=



000
FTUS43 KUNR 301725
TAFGCC
TAF
KGCC 301725Z 3018/3118 22010KT P6SM SCT150
     FM302200 VRB06KT P6SM BKN100
      TEMPO 3023/3103 25020G30KT -SHRA
     FM310900 32017G27KT P6SM BKN150=



000
FTUS43 KUNR 301725
TAFRAP
TAF
KRAP 301725Z 3018/3118 18013KT P6SM FEW150 SCT250
     FM311100 32018G28KT P6SM OVC150=



000
FTUS43 KUNR 301725
TAFGCC
TAF
KGCC 301725Z 3018/3118 22010KT P6SM SCT150
     FM302200 VRB06KT P6SM BKN100
      TEMPO 3023/3103 25020G30KT -SHRA
     FM310900 32017G27KT P6SM BKN150=



000
FTUS43 KUNR 301120
TAFGCC
TAF
KGCC 301120Z 3012/3112 20016KT P6SM BKN250
     FM301700 27008KT P6SM BKN250
     FM310000 33010KT P6SM BKN250
     FM310600 32017G27KT P6SM SKC=



000
FTUS43 KUNR 301120
TAFRAP
TAF
KRAP 301120Z 3012/3112 17013KT P6SM SCT250
     FM310900 32018G28KT P6SM OVC250=



000
FTUS43 KUNR 301120
TAFRAP
TAF
KRAP 301120Z 3012/3112 17013KT P6SM SCT250
     FM310900 32018G28KT P6SM OVC250=



000
FTUS43 KUNR 301120
TAFGCC
TAF
KGCC 301120Z 3012/3112 20016KT P6SM BKN250
     FM301700 27008KT P6SM BKN250
     FM310000 33010KT P6SM BKN250
     FM310600 32017G27KT P6SM SKC=



000
FTUS43 KUNR 300523
TAFRAP
TAF
KRAP 300523Z 3006/3106 17006KT P6SM BKN200 WS020/18035KT
     FM301600 17015KT P6SM BKN200=



000
FTUS43 KUNR 300523
TAFGCC
TAF
KGCC 300523Z 3006/3106 18012KT P6SM BKN200
     FM302100 24016KT P6SM SCT120 BKN200=



000
FTUS43 KUNR 300314 AAA
TAFGCC
TAF AMD
KGCC 300314Z 3003/3024 18011KT P6SM SCT250=



000
FTUS43 KUNR 300314 AAA
TAFGCC
TAF AMD
KGCC 300314Z 3003/3024 18011KT P6SM SCT250=



000
FTUS43 KUNR 292320
TAFGCC
TAF
KGCC 292320Z 3000/3024 21014G24KT P6SM SCT250
     FM300500 17012KT P6SM SCT250=



000
FTUS43 KUNR 292320
TAFRAP
TAF
KRAP 292320Z 3000/3024 17010KT P6SM SCT250
     FM300600 17006KT P6SM SCT250 WS020/18035KT
     FM301600 17015KT P6SM SCT250=



000
FTUS43 KUNR 292320
TAFGCC
TAF
KGCC 292320Z 3000/3024 21014G24KT P6SM SCT250
     FM300500 17012KT P6SM SCT250=



000
FTUS43 KUNR 292320
TAFRAP
TAF
KRAP 292320Z 3000/3024 17010KT P6SM SCT250
     FM300600 17006KT P6SM SCT250 WS020/18035KT
     FM301600 17015KT P6SM SCT250=



000
FTUS43 KUNR 292032 AAA
TAFGCC
TAF AMD
KGCC 292032Z 2921/3018 22011KT P6SM SCT250
     FM301000 17014KT P6SM SCT250=



000
FTUS43 KUNR 292032 AAA
TAFGCC
TAF AMD
KGCC 292032Z 2921/3018 22011KT P6SM SCT250
     FM301000 17014KT P6SM SCT250=



000
FTUS43 KUNR 291720
TAFRAP
TAF
KRAP 291720Z 2918/3018 17011KT P6SM SCT250=



000
FTUS43 KUNR 291720
TAFGCC
TAF
KGCC 291720Z 2918/3018 20015KT P6SM SCT250
     FM301000 17014KT P6SM SCT250=



    US Dept of Commerce
    National Oceanic and Atmospheric Administration
    National Weather Service
    1325 East West Highway
    Silver Spring, MD 20910
    Page Author: NWS Internet Services Team
Disclaimer
Information Quality
Credits
Glossary
Privacy Policy
Freedom of Information Act (FOIA)
About Us
Career Opportunities